createdAt,value
2023-05-12T00:00:49.822Z,22.38
2023-05-12T00:03:18.341Z,24.15
2023-05-12T00:05:46.617Z,26.15
2023-05-12T00:08:14.856Z,18.83
2023-05-12T00:10:43.310Z,17.73
2023-05-12T00:13:11.721Z,13.30
2023-05-12T00:15:40.014Z,20.13
2023-05-12T00:18:08.234Z,20.80
2023-05-12T00:20:36.723Z,19.33
2023-05-12T00:24:47.154Z,21.35
2023-05-12T00:27:15.489Z,12.93
2023-05-12T00:29:43.614Z,19.30
2023-05-12T00:32:11.855Z,13.15
2023-05-12T00:34:40.188Z,20.73
2023-05-12T00:37:08.532Z,10.55
2023-05-12T00:39:36.701Z,14.43
2023-05-12T00:42:05.075Z,22.33
2023-05-12T00:44:33.180Z,23.65
2023-05-12T00:47:01.634Z,21.38
2023-05-12T00:49:29.757Z,18.52
2023-05-12T00:51:59.904Z,12.73
2023-05-12T00:54:28.906Z,19.98
2023-05-12T00:56:58.058Z,25.50
2023-05-12T00:59:26.440Z,20.75
2023-05-12T01:01:54.867Z,26.58
2023-05-12T01:04:23.401Z,25.83
2023-05-12T01:07:04.469Z,22.27
2023-05-12T01:09:32.650Z,24.75
2023-05-12T01:12:01.679Z,19.13
2023-05-12T01:14:31.405Z,22.52
2023-05-12T01:17:03.742Z,24.40
2023-05-12T01:19:48.815Z,13.40
2023-05-12T01:22:18.780Z,16.42
2023-05-12T01:24:53.084Z,17.90
2023-05-12T01:27:23.785Z,11.45
2023-05-12T01:29:53.164Z,12.35
2023-05-12T01:32:22.822Z,16.95
2023-05-12T01:34:51.049Z,10.55
2023-05-12T01:37:20.158Z,11.85
2023-05-12T01:39:48.473Z,18.27
2023-05-12T01:42:21.687Z,10.90
2023-05-12T01:44:50.958Z,16.85
2023-05-12T01:47:20.229Z,15.77
2023-05-12T01:50:05.084Z,14.57
2023-05-12T01:52:33.468Z,25.38
2023-05-12T01:55:02.181Z,35.53
2023-05-12T01:57:36.409Z,26.55
2023-05-12T02:00:05.099Z,23.33
2023-05-12T02:02:42.868Z,20.73
2023-05-12T02:05:14.193Z,24.42
2023-05-12T02:07:45.114Z,21.10
2023-05-12T02:10:14.382Z,22.45
2023-05-12T02:12:42.476Z,42.25
2023-05-12T02:15:11.397Z,43.70
2023-05-12T02:17:44.842Z,49.45
2023-05-12T02:20:14.343Z,36.65
2023-05-12T02:22:44.309Z,33.80
2023-05-12T02:25:12.752Z,25.50
2023-05-12T02:27:41.273Z,28.15
2023-05-12T02:30:10.697Z,27.73
2023-05-12T02:32:39.238Z,24.15
2023-05-12T02:35:09.113Z,20.52
2023-05-12T02:37:38.650Z,26.75
2023-05-12T02:40:08.015Z,25.20
2023-05-12T02:42:36.319Z,29.88
2023-05-12T02:45:04.812Z,30.05
2023-05-12T02:47:33.331Z,36.17
2023-05-12T02:50:01.777Z,30.40
2023-05-12T02:52:30.040Z,36.70
2023-05-12T02:54:58.795Z,33.40
2023-05-12T02:57:27.157Z,41.08
2023-05-12T02:59:55.201Z,28.88
2023-05-12T03:02:23.645Z,19.10
2023-05-12T03:04:52.026Z,33.10
2023-05-12T03:07:20.870Z,49.33
2023-05-12T03:09:49.358Z,51.83
2023-05-12T03:12:17.567Z,47.00
2023-05-12T03:14:45.933Z,50.47
2023-05-12T03:17:14.209Z,46.85
2023-05-12T03:19:42.412Z,35.17
2023-05-12T03:22:10.602Z,35.75
2023-05-12T03:24:39.090Z,47.45
2023-05-12T03:27:07.382Z,36.53
2023-05-12T03:29:35.551Z,36.35
2023-05-12T03:32:04.383Z,33.13
2023-05-12T03:34:32.748Z,37.25
2023-05-12T03:37:01.058Z,34.65
2023-05-12T03:39:29.164Z,36.30
2023-05-12T03:41:57.578Z,30.02
2023-05-12T03:44:25.781Z,35.35
2023-05-12T03:46:54.046Z,34.03
2023-05-12T03:49:22.362Z,30.20
2023-05-12T03:51:50.497Z,33.42
2023-05-12T03:54:20.587Z,36.25
2023-05-12T03:56:48.823Z,41.63
2023-05-12T03:59:17.221Z,30.13
2023-05-12T04:01:45.441Z,27.67
2023-05-12T04:04:13.766Z,25.77
2023-05-12T04:06:42.096Z,27.83
2023-05-12T04:09:10.517Z,20.60
2023-05-12T04:11:38.999Z,18.98
2023-05-12T04:14:07.071Z,20.13
2023-05-12T04:16:35.381Z,19.75
2023-05-12T04:19:04.226Z,14.55
2023-05-12T04:21:32.479Z,13.02
2023-05-12T04:24:00.632Z,16.95
2023-05-12T04:26:33.304Z,14.73
2023-05-12T04:29:01.500Z,19.35
2023-05-12T04:31:29.907Z,14.75
2023-05-12T04:33:59.242Z,19.42
2023-05-12T04:36:27.499Z,14.20
2023-05-12T04:38:55.875Z,22.45
2023-05-12T04:41:23.973Z,14.23
2023-05-12T04:46:23.583Z,19.90
2023-05-12T04:48:51.965Z,14.73
2023-05-12T04:51:20.153Z,16.20
2023-05-12T04:53:49.180Z,13.60
2023-05-12T04:56:17.400Z,13.07
2023-05-12T04:58:46.361Z,13.80
2023-05-12T05:01:14.665Z,12.95
2023-05-12T05:03:43.133Z,18.48
2023-05-12T05:06:11.592Z,21.13
2023-05-12T05:08:39.768Z,13.15
2023-05-12T05:11:08.101Z,16.25
2023-05-12T05:13:36.326Z,15.25
2023-05-12T05:16:04.856Z,20.10
2023-05-12T05:18:33.258Z,24.83
2023-05-12T05:21:01.700Z,18.08
2023-05-12T05:23:29.871Z,18.92
2023-05-12T05:25:58.270Z,24.98
2023-05-12T05:28:26.635Z,18.88
2023-05-12T05:30:54.962Z,16.42
2023-05-12T05:33:23.281Z,12.60
2023-05-12T05:35:52.028Z,9.45
2023-05-12T05:38:20.749Z,7.35
2023-05-12T05:40:53.752Z,9.95
2023-05-12T05:43:24.487Z,6.38
2023-05-12T05:45:53.495Z,6.45
2023-05-12T05:48:22.913Z,6.63
2023-05-12T05:50:54.903Z,4.25
2023-05-12T05:53:24.824Z,7.05
2023-05-12T05:55:54.121Z,5.05
2023-05-12T05:58:23.972Z,4.20
2023-05-12T06:00:52.281Z,7.20
2023-05-12T06:03:20.585Z,4.32
2023-05-12T06:05:49.671Z,7.00
2023-05-12T06:08:18.241Z,5.95
2023-05-12T06:10:46.545Z,6.80
2023-05-12T06:13:14.740Z,4.38
2023-05-12T06:15:43.278Z,3.10
2023-05-12T06:18:13.075Z,7.15
2023-05-12T06:20:41.339Z,8.60
2023-05-12T06:23:09.597Z,8.00
2023-05-12T06:25:37.654Z,10.27
2023-05-12T06:28:05.989Z,9.25
2023-05-12T06:30:35.718Z,6.88
2023-05-12T06:33:04.122Z,4.93
2023-05-12T06:35:32.412Z,10.00
2023-05-12T06:38:00.672Z,8.98
2023-05-12T06:40:28.945Z,13.80
2023-05-12T06:42:57.179Z,12.43
2023-05-12T06:45:27.885Z,8.32
2023-05-12T06:47:56.187Z,10.25
2023-05-12T06:50:28.758Z,9.50
2023-05-12T06:52:56.914Z,15.50
2023-05-12T06:55:25.233Z,11.07
2023-05-12T06:57:53.697Z,18.27
2023-05-12T07:00:25.808Z,31.08
2023-05-12T07:05:22.265Z,37.92
2023-05-12T07:07:50.883Z,33.42
2023-05-12T07:10:19.156Z,29.35
2023-05-12T07:12:47.458Z,30.30
2023-05-12T07:15:15.707Z,23.77
2023-05-12T07:17:44.126Z,18.60
2023-05-12T07:20:12.665Z,18.00
2023-05-12T07:22:40.934Z,19.88
2023-05-12T07:25:09.759Z,18.75
2023-05-12T07:27:38.279Z,25.77
2023-05-12T07:30:08.969Z,16.08
2023-05-12T07:32:37.476Z,17.48
2023-05-12T07:38:08.242Z,18.15
2023-05-12T07:40:36.919Z,21.50
2023-05-12T07:43:04.995Z,14.70
2023-05-12T07:45:33.308Z,9.73
2023-05-12T07:48:01.558Z,14.50
2023-05-12T07:50:30.315Z,8.23
2023-05-12T07:52:58.422Z,9.45
2023-05-12T07:55:26.794Z,10.38
2023-05-12T07:57:54.918Z,9.55
2023-05-12T08:00:23.372Z,9.05
2023-05-12T08:02:52.197Z,11.18
2023-05-12T08:05:21.257Z,12.40
2023-05-12T08:07:49.982Z,12.38
2023-05-12T08:10:18.150Z,11.38
2023-05-12T08:12:46.626Z,16.25
2023-05-12T08:15:14.971Z,14.00
2023-05-12T08:17:43.473Z,13.05
2023-05-12T08:20:12.210Z,13.90
2023-05-12T08:22:40.593Z,19.00
2023-05-12T08:25:11.673Z,13.65
2023-05-12T08:30:09.454Z,10.13
2023-05-12T08:32:38.073Z,12.23
2023-05-12T08:35:06.589Z,18.13
2023-05-12T08:37:35.296Z,13.20
2023-05-12T08:40:03.538Z,13.90
2023-05-12T08:42:49.433Z,12.10
2023-05-12T08:45:18.414Z,10.18
2023-05-12T08:47:47.032Z,11.32
2023-05-12T08:50:17.741Z,14.60
2023-05-12T08:52:46.131Z,12.68
2023-05-12T08:55:14.799Z,5.78
2023-05-12T08:57:44.178Z,10.48
2023-05-12T09:00:13.337Z,5.95
2023-05-12T09:02:53.133Z,7.97
2023-05-12T09:05:23.850Z,13.02
2023-05-12T09:07:54.447Z,8.98
2023-05-12T09:13:14.223Z,11.75
2023-05-12T09:15:45.415Z,10.80
2023-05-12T09:20:42.741Z,12.02
2023-05-12T09:23:20.507Z,11.75
2023-05-12T09:26:00.135Z,13.00
2023-05-12T09:28:40.901Z,15.65
2023-05-12T09:31:26.630Z,6.97
2023-05-12T09:33:54.969Z,9.63
2023-05-12T09:36:25.129Z,15.18
2023-05-12T09:39:07.331Z,83.85
2023-05-12T09:41:40.239Z,11.32
2023-05-12T09:44:09.501Z,12.15
2023-05-12T09:46:38.444Z,9.43
2023-05-12T09:49:06.573Z,7.10
2023-05-12T09:51:35.010Z,9.88
2023-05-12T09:54:03.577Z,13.45
2023-05-12T09:56:33.242Z,9.77
2023-05-12T09:59:05.444Z,7.20
2023-05-12T10:01:34.026Z,10.75
2023-05-12T10:04:03.052Z,9.13
2023-05-12T10:06:38.655Z,12.23
2023-05-12T10:09:35.004Z,6.85
2023-05-12T10:12:04.683Z,7.43
2023-05-12T10:14:33.129Z,6.82
2023-05-12T10:17:02.662Z,8.88
2023-05-12T10:19:31.932Z,11.48
2023-05-12T10:22:01.104Z,8.68
2023-05-12T10:24:29.609Z,12.60
2023-05-12T10:26:58.634Z,8.77
2023-05-12T10:29:27.851Z,5.25
2023-05-12T10:31:57.330Z,7.28
2023-05-12T10:34:34.231Z,6.68
2023-05-12T10:37:06.290Z,14.05
2023-05-12T10:39:34.922Z,7.93
2023-05-12T10:42:09.966Z,6.55
2023-05-12T10:44:57.377Z,9.63
2023-05-12T10:47:27.283Z,5.97
2023-05-12T10:49:59.999Z,6.63
2023-05-12T10:52:28.421Z,4.90
2023-05-12T10:55:04.889Z,8.05
2023-05-12T10:57:34.532Z,7.35
2023-05-12T11:00:04.094Z,4.97
2023-05-12T11:02:34.698Z,4.88
2023-05-12T11:05:12.918Z,15.80
2023-05-12T11:10:15.654Z,8.93
2023-05-12T11:12:44.862Z,5.65
2023-05-12T11:15:14.324Z,6.65
2023-05-12T11:17:43.496Z,8.02
2023-05-12T11:20:22.276Z,13.82
2023-05-12T11:22:50.586Z,21.90
2023-05-12T11:25:19.203Z,6.20
2023-05-12T11:27:52.341Z,12.63
2023-05-12T11:30:20.900Z,7.15
2023-05-12T11:33:00.228Z,9.75
2023-05-12T11:35:31.883Z,6.75
2023-05-12T11:38:00.283Z,8.40
2023-05-12T11:40:28.455Z,14.48
2023-05-12T11:42:56.770Z,7.03
2023-05-12T11:45:30.928Z,19.27
2023-05-12T11:48:13.418Z,7.75
2023-05-12T11:50:44.260Z,9.63
2023-05-12T11:53:15.230Z,15.73
2023-05-12T11:55:56.793Z,10.50
2023-05-12T11:58:28.374Z,9.32
2023-05-12T12:00:57.324Z,10.98
2023-05-12T12:03:26.397Z,11.50
2023-05-12T12:06:04.433Z,8.32
2023-05-12T12:08:32.766Z,8.02
2023-05-12T12:11:03.688Z,6.22
2023-05-12T12:13:32.278Z,9.80
2023-05-12T12:16:00.536Z,10.93
2023-05-12T12:18:28.981Z,8.02
2023-05-12T12:20:57.067Z,7.78
2023-05-12T12:23:25.306Z,10.88
2023-05-12T12:25:53.670Z,11.55
2023-05-12T12:28:22.138Z,11.25
2023-05-12T12:30:50.668Z,11.05
2023-05-12T12:33:20.548Z,11.73
2023-05-12T12:35:49.006Z,11.30
2023-05-12T12:38:17.384Z,9.10
2023-05-12T12:40:45.713Z,14.48
2023-05-12T12:43:14.076Z,8.40
2023-05-12T12:45:42.341Z,11.85
2023-05-12T12:48:10.680Z,10.68
2023-05-12T12:50:38.945Z,8.90
2023-05-12T12:53:07.354Z,9.18
2023-05-12T12:55:35.824Z,9.10
2023-05-12T12:58:03.923Z,20.38
2023-05-12T13:00:32.221Z,18.00
2023-05-12T13:03:00.831Z,15.60
2023-05-12T13:05:29.445Z,16.30
2023-05-12T13:07:57.485Z,14.65
2023-05-12T13:10:25.889Z,27.58
2023-05-12T13:12:54.318Z,11.65
2023-05-12T13:15:23.069Z,11.40
2023-05-12T13:17:51.455Z,13.55
2023-05-12T13:20:20.065Z,10.70
2023-05-12T13:22:48.690Z,16.50
2023-05-12T13:25:16.945Z,12.77
2023-05-12T13:27:45.117Z,11.23
2023-05-12T13:30:14.042Z,10.55
2023-05-12T13:32:42.441Z,24.55
2023-05-12T13:35:11.108Z,27.55
2023-05-12T13:37:39.398Z,37.05
2023-05-12T13:40:11.262Z,21.30
2023-05-12T13:42:39.614Z,16.20
2023-05-12T13:45:08.257Z,9.40
2023-05-12T13:47:36.596Z,12.65
2023-05-12T13:50:05.012Z,9.98
2023-05-12T13:52:33.248Z,14.48
2023-05-12T13:55:01.389Z,16.38
2023-05-12T13:57:29.587Z,15.73
2023-05-12T13:59:57.847Z,11.75
2023-05-12T14:02:26.011Z,17.65
2023-05-12T14:04:54.487Z,24.92
2023-05-12T14:07:22.685Z,19.40
2023-05-12T14:09:50.781Z,22.75
2023-05-12T14:12:19.090Z,13.27
2023-05-12T14:14:47.366Z,18.17
2023-05-12T14:17:15.729Z,28.88
2023-05-12T14:19:44.191Z,16.38
2023-05-12T14:22:25.522Z,11.80
2023-05-12T14:24:54.860Z,11.50
2023-05-12T14:27:23.153Z,17.73
2023-05-12T14:29:51.262Z,25.20
2023-05-12T14:32:19.572Z,22.80
2023-05-12T14:34:47.882Z,14.70
2023-05-12T14:37:15.981Z,30.58
2023-05-12T14:39:44.315Z,21.73
2023-05-12T14:42:12.625Z,15.75
2023-05-12T14:44:40.709Z,20.35
2023-05-12T14:47:09.178Z,16.95
2023-05-12T14:49:37.634Z,19.00
2023-05-12T14:52:05.998Z,30.45
2023-05-12T14:54:34.565Z,12.93
2023-05-12T14:57:02.883Z,10.93
2023-05-12T14:59:31.778Z,16.60
2023-05-12T15:02:00.073Z,33.22
2023-05-12T15:04:28.636Z,10.68
2023-05-12T15:06:57.864Z,15.10
2023-05-12T15:09:26.051Z,17.90
2023-05-12T15:11:54.417Z,16.55
2023-05-12T15:16:55.735Z,19.70
2023-05-12T15:19:23.999Z,25.85
2023-05-12T15:21:52.443Z,17.63
2023-05-12T15:24:20.528Z,16.65
2023-05-12T15:26:48.721Z,12.43
2023-05-12T15:29:17.195Z,23.20
2023-05-12T15:31:45.491Z,20.55
2023-05-12T15:34:13.936Z,22.08
2023-05-12T15:36:42.001Z,23.52
2023-05-12T15:39:10.302Z,23.90
2023-05-12T15:41:38.611Z,18.50
2023-05-12T15:44:06.984Z,20.30
2023-05-12T15:46:35.231Z,10.70
2023-05-12T15:49:03.591Z,12.35
2023-05-12T15:51:32.234Z,14.02
2023-05-12T15:54:00.573Z,15.57
2023-05-12T15:56:28.763Z,15.13
2023-05-12T15:58:56.984Z,18.48
2023-05-12T16:01:26.132Z,11.55
2023-05-12T16:03:55.054Z,14.15
2023-05-12T16:06:26.252Z,42.17
2023-05-12T16:08:54.540Z,31.42
2023-05-12T16:11:22.730Z,22.65
2023-05-12T16:13:52.908Z,8.88
2023-05-12T16:16:21.339Z,17.15
2023-05-12T16:18:49.532Z,10.43
2023-05-12T16:21:17.831Z,18.48
2023-05-12T16:23:46.129Z,19.88
2023-05-12T16:26:14.524Z,11.43
2023-05-12T16:28:42.622Z,32.25
2023-05-12T16:31:10.995Z,18.08
2023-05-12T16:33:39.224Z,14.95
2023-05-12T16:36:07.968Z,14.65
2023-05-12T16:38:36.260Z,21.48
2023-05-12T16:41:04.464Z,23.23
2023-05-12T16:43:32.702Z,25.55
2023-05-12T16:46:02.855Z,22.80
2023-05-12T16:48:31.449Z,36.40
2023-05-12T16:51:10.065Z,20.20
2023-05-12T16:53:38.590Z,12.95
2023-05-12T16:56:07.156Z,15.90
2023-05-12T16:58:35.519Z,19.63
2023-05-12T17:01:03.951Z,21.50
2023-05-12T17:03:32.242Z,11.63
2023-05-12T17:06:00.526Z,27.55
2023-05-12T17:08:28.723Z,21.45
2023-05-12T17:10:56.946Z,21.40
2023-05-12T17:13:25.157Z,28.15
2023-05-12T17:15:53.401Z,22.90
2023-05-12T17:18:21.673Z,27.05
2023-05-12T17:20:49.923Z,28.52
2023-05-12T17:23:18.192Z,18.23
2023-05-12T17:25:46.441Z,29.85
2023-05-12T17:28:14.634Z,17.83
2023-05-12T17:30:42.802Z,25.65
2023-05-12T17:33:11.038Z,34.97
2023-05-12T17:35:39.301Z,40.42
2023-05-12T17:38:07.807Z,24.25
2023-05-12T17:40:36.061Z,35.10
2023-05-12T17:43:04.395Z,25.77
2023-05-12T17:45:32.753Z,38.88
2023-05-12T17:48:01.089Z,38.22
2023-05-12T17:50:32.343Z,74.85
2023-05-12T17:53:00.592Z,46.35
2023-05-12T17:55:28.743Z,37.75
2023-05-12T17:57:57.028Z,44.47
2023-05-12T18:00:25.389Z,48.75
2023-05-12T18:02:53.633Z,42.53
2023-05-12T18:05:22.398Z,54.95
2023-05-12T18:07:50.998Z,34.85
2023-05-12T18:10:19.376Z,59.97
2023-05-12T18:12:47.527Z,57.67
2023-05-12T18:15:15.713Z,44.20
2023-05-12T18:17:44.029Z,69.57
2023-05-12T18:20:12.788Z,47.00
2023-05-12T18:22:41.455Z,55.45
2023-05-12T18:25:10.344Z,29.58
2023-05-12T18:27:38.643Z,33.40
2023-05-12T18:30:07.694Z,39.30
2023-05-12T18:32:36.184Z,57.78
2023-05-12T18:35:05.621Z,59.03
2023-05-12T18:37:34.081Z,48.42
2023-05-12T18:40:02.476Z,45.60
2023-05-12T18:42:30.902Z,48.67
2023-05-12T18:44:59.027Z,50.40
2023-05-12T18:47:27.631Z,64.25
2023-05-12T18:49:56.130Z,36.70
2023-05-12T18:52:24.503Z,52.83
2023-05-12T18:54:52.895Z,47.15
2023-05-12T18:57:21.101Z,49.40
2023-05-12T18:59:49.765Z,95.60
2023-05-12T19:02:17.870Z,67.95
2023-05-12T19:04:46.068Z,53.92
2023-05-12T19:07:14.728Z,29.50
2023-05-12T19:09:43.126Z,27.50
2023-05-12T19:12:11.709Z,49.80
2023-05-12T19:14:40.402Z,84.60
2023-05-12T19:17:08.498Z,49.25
2023-05-12T19:19:36.826Z,35.33
2023-05-12T19:22:05.178Z,60.55
2023-05-12T19:24:33.516Z,34.25
2023-05-12T19:27:01.854Z,45.85
2023-05-12T19:29:30.213Z,33.45
2023-05-12T19:31:58.504Z,36.55
2023-05-12T19:34:26.965Z,37.70
2023-05-12T19:36:56.011Z,50.50
2023-05-12T19:39:24.748Z,26.40
2023-05-12T19:41:53.040Z,32.17
2023-05-12T19:44:21.324Z,23.38
2023-05-12T19:46:49.723Z,28.33
2023-05-12T19:49:18.138Z,27.77
2023-05-12T19:51:46.343Z,50.72
2023-05-12T19:54:14.647Z,37.63
2023-05-12T19:56:42.953Z,39.53
2023-05-12T19:59:11.558Z,28.45
2023-05-12T20:01:39.822Z,37.17
2023-05-12T20:04:08.148Z,44.22
2023-05-12T20:06:36.677Z,51.13
2023-05-12T20:09:05.009Z,51.17
2023-05-12T20:11:33.427Z,53.30
2023-05-12T20:14:01.764Z,70.93
2023-05-12T20:16:30.700Z,76.35
2023-05-12T20:19:00.655Z,73.05
2023-05-12T20:21:31.113Z,67.05
2023-05-12T20:23:59.290Z,74.78
2023-05-12T20:26:28.244Z,44.00
2023-05-12T20:28:56.827Z,28.17
2023-05-12T20:31:25.167Z,47.78
2023-05-12T20:33:53.871Z,40.35
2023-05-12T20:36:22.408Z,51.17
2023-05-12T20:38:50.674Z,47.45
2023-05-12T20:41:19.064Z,59.63
2023-05-12T20:43:47.289Z,41.05
2023-05-12T20:46:15.958Z,51.15
2023-05-12T20:48:44.526Z,40.78
2023-05-12T20:51:13.819Z,44.97
2023-05-12T20:53:42.434Z,39.22
2023-05-12T20:56:13.000Z,41.08
2023-05-12T20:58:42.081Z,54.90
2023-05-12T21:01:10.371Z,33.63
2023-05-12T21:03:38.686Z,50.80
2023-05-12T21:06:07.500Z,33.55
2023-05-12T21:08:35.981Z,33.55
2023-05-12T21:11:04.450Z,37.83
2023-05-12T21:13:32.686Z,30.80
2023-05-12T21:16:00.940Z,49.50
2023-05-12T21:18:29.511Z,37.35
2023-05-12T21:20:57.898Z,36.60
2023-05-12T21:23:26.209Z,24.52
2023-05-12T21:25:54.690Z,46.13
2023-05-12T21:28:23.008Z,64.25
2023-05-12T21:30:51.382Z,54.70
2023-05-12T21:33:19.827Z,69.80
2023-05-12T21:37:45.754Z,40.67
2023-05-12T21:40:14.463Z,49.47
2023-05-12T21:42:42.939Z,52.47
2023-05-12T21:45:11.538Z,51.10
2023-05-12T21:47:39.745Z,47.85
2023-05-12T21:50:08.536Z,52.10
2023-05-12T21:52:36.736Z,47.47
2023-05-12T21:55:05.304Z,50.10
2023-05-12T21:57:33.410Z,58.65
2023-05-12T22:00:01.785Z,58.42
2023-05-12T22:02:37.595Z,51.40
2023-05-12T22:05:06.553Z,49.13
2023-05-12T22:07:34.715Z,40.80
2023-05-12T22:10:03.132Z,49.38
2023-05-12T22:12:31.715Z,37.47
2023-05-12T22:15:00.042Z,37.03
2023-05-12T22:17:28.253Z,28.48
2023-05-12T22:19:56.726Z,25.90
2023-05-12T22:22:24.949Z,26.27
2023-05-12T22:24:53.427Z,30.45
2023-05-12T22:27:21.806Z,20.88
2023-05-12T22:29:50.211Z,20.95
2023-05-12T22:32:18.413Z,17.60
2023-05-12T22:34:47.172Z,17.85
2023-05-12T22:37:15.486Z,14.05
2023-05-12T22:39:43.833Z,21.67
2023-05-12T22:42:12.177Z,21.50
2023-05-12T22:44:40.799Z,33.80
2023-05-12T23:02:26.893Z,21.77
2023-05-12T23:04:55.414Z,25.52
2023-05-12T23:07:23.655Z,17.15
2023-05-12T23:09:52.222Z,21.00
2023-05-12T23:12:20.623Z,15.85
2023-05-12T23:14:49.112Z,18.50
2023-05-12T23:17:17.359Z,11.48
2023-05-12T23:19:45.890Z,13.02
2023-05-12T23:22:14.071Z,18.00
2023-05-12T23:24:42.307Z,16.13
2023-05-12T23:27:10.815Z,16.77
2023-05-12T23:29:39.366Z,11.35
2023-05-12T23:32:08.140Z,13.27
2023-05-12T23:34:36.631Z,13.27
2023-05-12T23:37:04.825Z,14.02
2023-05-12T23:39:33.323Z,15.48
2023-05-12T23:42:01.677Z,13.63
2023-05-12T23:44:29.932Z,18.02
2023-05-12T23:46:58.128Z,12.77
2023-05-12T23:49:26.536Z,12.13
2023-05-12T23:51:54.778Z,11.10
2023-05-12T23:54:23.132Z,13.18
2023-05-12T23:56:51.477Z,20.40
2023-05-12T23:59:19.755Z,12.32
